Time;durP1;ratioP1;P1;durP2;ratioP2;P2;SDS_P1;SDS_P2;PMS_P1;PMS_P2;Temp;Humidity;BMP_temperature;BMP_pressure;BME280_temperature;BME280_humidity;BME280_pressure;Samples;Min_cycle;Max_cycle;Signal;HPM_P1;HPM_P2
2023/10/02 00:01:10;;;;;;;10.23;4.05;;;;;;;;;;4980877;28;20029;-71
2023/10/02 00:03:39;;;;;;;12.13;5.03;;;;;;;;;;4983871;28;20117;-71
2023/10/02 00:06:04;;;;;;;15.35;5.15;;;;;;;;;;4983498;28;20034;-72
2023/10/02 00:09:13;;;;;;;11.02;4.57;;;;;;;;;;4984031;28;20060;-71
2023/10/02 00:14:18;;;;;;;13.70;5.15;;;;;;;;;;4982185;28;20554;-72
2023/10/02 00:16:59;;;;;;;12.15;4.60;;;;;;;;;;4984048;28;20109;-72
2023/10/02 00:19:40;;;;;;;10.93;4.75;;;;;;;;;;4987366;28;20153;-73
2023/10/02 00:22:34;;;;;;;9.90;4.32;;;;;;;;;;4982472;28;20109;-74
2023/10/02 00:24:55;;;;;;;;;;;;;;;;;;4984291;28;20067;-73
2023/10/02 00:27:21;;;;;;;15.40;4.55;;;;;;;;;;4983774;28;19914;-74
2023/10/02 00:29:52;;;;;;;9.23;4.50;;;;;;;;;;4983690;28;20109;-74
2023/10/02 00:32:20;;;;;;;12.13;4.60;;;;;;;;;;4978832;28;20030;-74
2023/10/02 00:34:46;;;;;;;14.77;4.53;;;;;;;;;;4981880;28;20034;-74
2023/10/02 00:37:15;;;;;;;10.52;4.30;;;;;;;;;;4982980;28;20724;-73
2023/10/02 00:39:41;;;;;;;15.07;5.35;;;;;;;;;;4979917;28;20027;-73
2023/10/02 00:42:15;;;;;;;12.07;4.90;;;;;;;;;;4982054;28;20122;-74
2023/10/02 00:44:57;;;;;;;10.65;4.75;;;;;;;;;;4983561;28;20035;-74
2023/10/02 00:50:23;;;;;;;9.93;4.57;;;;;;;;;;4969126;28;20051;-73
2023/10/02 00:52:59;;;;;;;9.05;4.40;;;;;;;;;;4983988;28;20117;-73
2023/10/02 00:55:37;;;;;;;7.53;3.70;;;;;;;;;;4983207;28;20025;-74
2023/10/02 00:58:04;;;;;;;14.70;4.80;;;;;;;;;;4983842;28;20067;-73
2023/10/02 01:00:35;;;;;;;8.73;4.13;;;;;;;;;;4981580;28;20018;-74
2023/10/02 01:03:05;;;;;;;14.55;4.95;;;;;;;;;;4980697;28;20030;-73
2023/10/02 01:05:41;;;;;;;14.60;4.93;;;;;;;;;;4982678;28;20536;-74
2023/10/02 01:08:21;;;;;;;15.07;4.15;;;;;;;;;;4982720;28;20104;-73
2023/10/02 01:10:50;;;;;;;8.73;4.53;;;;;;;;;;4983207;28;20613;-74
2023/10/02 01:13:17;;;;;;;9.18;4.22;;;;;;;;;;4981570;28;20030;-73
2023/10/02 01:15:43;;;;;;;11.07;4.60;;;;;;;;;;4981554;28;20062;-74
2023/10/02 01:18:27;;;;;;;11.68;3.90;;;;;;;;;;4982120;28;20513;-73
2023/10/02 01:20:54;;;;;;;10.30;4.10;;;;;;;;;;4981925;28;20342;-70
2023/10/02 01:23:23;;;;;;;13.18;4.13;;;;;;;;;;4982567;28;20057;-70
2023/10/02 01:25:49;;;;;;;8.52;3.88;;;;;;;;;;4998028;28;20070;-69
2023/10/02 01:28:15;;;;;;;9.35;3.70;;;;;;;;;;4985668;28;20069;-70
2023/10/02 01:30:42;;;;;;;12.00;4.18;;;;;;;;;;4982571;28;20018;-69
2023/10/02 01:33:32;;;;;;;10.15;3.95;;;;;;;;;;4983564;28;20034;-69
2023/10/02 01:35:54;;;;;;;13.63;4.07;;;;;;;;;;4984359;28;20134;-70
2023/10/02 01:38:19;;;;;;;15.23;4.70;;;;;;;;;;4981985;28;20049;-71
2023/10/02 01:43:45;;;;;;;10.00;4.22;;;;;;;;;;4981974;28;20370;-71
2023/10/02 01:46:17;;;;;;;12.30;4.40;;;;;;;;;;4983007;28;20099;-71
2023/10/02 01:48:48;;;;;;;10.02;4.05;;;;;;;;;;4980474;28;20041;-70
2023/10/02 01:51:20;;;;;;;11.90;4.53;;;;;;;;;;4981916;28;20090;-71
2023/10/02 01:53:58;;;;;;;10.60;3.90;;;;;;;;;;4982678;28;20065;-71
2023/10/02 01:56:29;;;;;;;11.52;3.97;;;;;;;;;;4983277;28;20037;-68
2023/10/02 01:58:54;;;;;;;8.57;4.20;;;;;;;;;;4984376;28;20142;-67
2023/10/02 02:01:21;;;;;;;9.57;4.05;;;;;;;;;;4985138;28;20735;-67
2023/10/02 02:03:48;;;;;;;8.85;4.20;;;;;;;;;;4987824;28;20488;-68
2023/10/02 02:06:16;;;;;;;9.40;4.30;;;;;;;;;;4980464;28;20041;-66
2023/10/02 02:08:43;;;;;;;13.63;3.92;;;;;;;;;;4987726;28;20113;-67
2023/10/02 02:11:16;;;;;;;11.13;4.07;;;;;;;;;;4982337;28;20078;-69
2023/10/02 02:13:44;;;;;;;15.52;4.43;;;;;;;;;;4980981;28;20038;-71
2023/10/02 02:16:15;;;;;;;14.85;4.15;;;;;;;;;;4982230;28;20054;-71
2023/10/02 02:18:45;;;;;;;12.40;4.10;;;;;;;;;;4980362;28;20035;-72
2023/10/02 02:21:14;;;;;;;11.82;3.90;;;;;;;;;;4979736;28;20033;-71
2023/10/02 02:23:39;;;;;;;9.13;4.20;;;;;;;;;;4979901;28;20054;-71
2023/10/02 02:26:08;;;;;;;13.07;4.10;;;;;;;;;;4983339;28;20137;-71
2023/10/02 02:28:43;;;;;;;7.75;3.33;;;;;;;;;;4983542;28;20295;-70
2023/10/02 02:31:29;;;;;;;9.95;3.60;;;;;;;;;;4983116;28;20088;-71
2023/10/02 02:33:54;;;;;;;7.95;3.60;;;;;;;;;;4983607;28;20045;-70
2023/10/02 02:36:21;;;;;;;9.47;3.17;;;;;;;;;;4977802;28;20037;-70
2023/10/02 02:38:48;;;;;;;14.18;3.97;;;;;;;;;;4982306;28;20037;-70
2023/10/02 02:41:18;;;;;;;11.55;3.92;;;;;;;;;;4981538;28;20030;-71
2023/10/02 02:43:46;;;;;;;12.02;3.33;;;;;;;;;;4981344;28;20053;-69
2023/10/02 02:46:17;;;;;;;8.75;3.13;;;;;;;;;;4979806;28;20054;-70
2023/10/02 02:48:44;;;;;;;10.43;3.55;;;;;;;;;;4981358;28;20022;-70
2023/10/02 02:51:14;;;;;;;9.00;3.42;;;;;;;;;;4979871;28;20026;-70
2023/10/02 02:53:40;;;;;;;8.55;3.50;;;;;;;;;;4978665;28;20092;-70
2023/10/02 02:56:18;;;;;;;11.75;3.67;;;;;;;;;;4976277;28;20721;-68
2023/10/02 02:58:48;;;;;;;11.35;4.00;;;;;;;;;;4980755;28;20034;-70
2023/10/02 03:01:16;;;;;;;10.13;3.90;;;;;;;;;;4982538;28;20062;-70
2023/10/02 03:03:42;;;;;;;10.48;3.55;;;;;;;;;;4980567;28;20038;-69
2023/10/02 03:06:14;;;;;;;8.48;3.47;;;;;;;;;;4979272;28;20042;-71
2023/10/02 03:08:41;;;;;;;9.77;3.55;;;;;;;;;;4980391;28;20061;-70
2023/10/02 03:11:10;;;;;;;9.63;4.25;;;;;;;;;;4975006;28;20550;-70
2023/10/02 03:13:36;;;;;;;12.10;6.15;;;;;;;;;;4982275;28;20030;-70
2023/10/02 03:16:17;;;;;;;14.07;6.55;;;;;;;12.47;nan;101414.88;4981230;28;20707;-70
2023/10/02 03:18:48;;;;;;;8.77;5.07;;;;;;;;;;4979250;28;20045;-70
2023/10/02 03:21:24;;;;;;;14.55;6.25;;;;;;;;;;4980409;28;20635;-71
2023/10/02 03:23:50;;;;;;;11.27;4.95;;;;;;;;;;4980673;28;20030;-70
2023/10/02 03:26:37;;;;;;;9.73;4.50;;;;;;;;;;4981370;28;20037;-70
2023/10/02 03:29:06;;;;;;;11.70;4.22;;;;;;;;;;4981919;28;20056;-69
2023/10/02 03:31:43;;;;;;;16.35;4.60;;;;;;;;;;4981636;28;20109;-67
2023/10/02 03:34:27;;;;;;;12.65;4.10;;;;;;;;;;4981929;28;20153;-67
2023/10/02 03:36:59;;;;;;;16.98;4.15;;;;;;;;;;4975207;28;20485;-68
2023/10/02 03:42:12;;;;;;;13.68;4.82;;;;;;;;;;4979933;28;20614;-68
2023/10/02 03:44:39;;;;;;;11.25;3.90;;;;;;;;;;4980691;28;20026;-68
2023/10/02 03:47:04;;;;;;;12.68;3.88;;;;;;;;;;4980983;28;20507;-68
2023/10/02 03:49:32;;;;;;;10.63;3.75;;;;;;;;;;4978803;28;20035;-68
2023/10/02 03:51:57;;;;;;;12.52;3.67;;;;;;;;;;4992594;28;20027;-69
2023/10/02 03:54:23;;;;;;;15.30;4.75;;;;;;;;;;4980510;28;20041;-69
2023/10/02 03:56:49;;;;;;;11.32;4.15;;;;;;;;;;4983178;28;20022;-69
2023/10/02 03:59:20;;;;;;;11.02;3.83;;;;;;;;;;4986281;28;20117;-67
2023/10/02 04:01:47;;;;;;;10.25;4.05;;;;;;;;;;4983610;28;20070;-67
2023/10/02 04:06:44;;;;;;;11.63;3.88;;;;;;;;;;4988110;28;20022;-67
2023/10/02 04:09:21;;;;;;;13.05;3.85;;;;;;;;;;4986834;28;20631;-67
2023/10/02 04:11:48;;;;;;;13.88;4.25;;;;;;;;;;4982301;28;20026;-68
2023/10/02 04:14:17;;;;;;;10.40;4.00;;;;;;;;;;4984882;28;20041;-68
2023/10/02 04:16:44;;;;;;;9.88;3.70;;;;;;;;;;4984966;28;20050;-68
2023/10/02 04:19:09;;;;;;;11.98;3.88;;;;;;;;;;4983449;28;20034;-68
2023/10/02 04:21:34;;;;;;;13.43;4.30;;;;;;;;;;4984262;28;20022;-67
2023/10/02 04:23:59;;;;;;;8.17;3.30;;;;;;;;;;4981928;28;20408;-67
2023/10/02 04:26:28;;;;;;;16.40;4.32;;;;;;;;;;4985034;28;20045;-68
2023/10/02 04:29:26;;;;;;;12.68;3.45;;;;;;;;;;4982837;28;20038;-67
2023/10/02 04:31:42;;;;;;;12.48;3.92;;;;;;;;;;4981128;28;20601;-67
2023/10/02 04:36:48;;;;;;;11.90;4.28;;;;;;;;;;4981217;28;20038;-67
2023/10/02 04:42:11;;;;;;;15.43;5.03;;;;;;;;;;4983951;28;20065;-66
2023/10/02 04:44:44;;;;;;;17.83;4.25;;;;;;;;;;4984421;28;20408;-70
2023/10/02 04:47:13;;;;;;;13.35;4.30;;;;;;;;;;4986840;28;20030;-69
2023/10/02 04:49:59;;;;;;;12.25;4.47;;;;;;;;;;4984346;28;20125;-68
2023/10/02 04:52:53;;;;;;;15.18;4.80;;;;;;;;;;4986745;28;20110;-71
2023/10/02 04:55:09;;;;;;;23.40;6.85;;;;;;;;;;4983187;28;20043;-66
2023/10/02 04:57:35;;;;;;;20.02;6.30;;;;;;;11.66;nan;101450.50;4984498;28;20084;-67
2023/10/02 05:00:19;;;;;;;38.20;11.95;;;;;;;;;;4984381;28;20023;-67
2023/10/02 05:02:47;;;;;;;15.82;5.95;;;;;;;;;;4981524;28;20526;-69
2023/10/02 05:05:14;;;;;;;12.82;5.00;;;;;;;;;;4983561;28;20076;-68
2023/10/02 05:07:41;;;;;;;17.90;4.63;;;;;;;;;;4983568;28;20030;-68
2023/10/02 05:10:11;;;;;;;19.25;4.82;;;;;;;;;;4989491;28;20061;-68
2023/10/02 05:12:37;;;;;;;13.65;5.13;;;;;;;;;;4988016;28;20037;-68
2023/10/02 05:15:07;;;;;;;23.35;4.88;;;;;;;;;;4987030;28;20044;-68
2023/10/02 05:17:46;;;;;;;;;;;;;;;;;;4989671;28;20537;-66
2023/10/02 05:20:15;;;;;;;;;;;;;;;;;;4999060;28;19973;-67
2023/10/02 05:22:41;;;;;;;17.10;4.90;;;;;;;;;;4986238;28;20309;-67
2023/10/02 05:25:07;;;;;;;14.70;4.18;;;;;;;;;;4982020;28;20792;-68
2023/10/02 05:27:37;;;;;;;10.85;4.53;;;;;;;;;;4983568;28;20030;-69
2023/10/02 05:30:17;;;;;;;18.42;4.10;;;;;;;;;;4981267;28;20105;-69
2023/10/02 05:33:07;;;;;;;17.05;4.78;;;;;;;;;;4978151;28;20396;-66
2023/10/02 05:35:33;;;;;;;16.08;4.47;;;;;;;;;;4981069;28;20031;-70
2023/10/02 05:37:58;;;;;;;19.52;4.65;;;;;;;;;;4983293;28;20094;-71
2023/10/02 05:45:39;;;;;;;19.23;4.20;;;;;;;12.34;nan;101495.81;4984335;28;20041;-69
2023/10/02 05:48:08;;;;;;;15.32;4.05;;;;;;;;;;4982762;28;20033;-70
2023/10/02 05:50:34;;;;;;;11.27;3.85;;;;;;;;;;4979628;28;20033;-70
2023/10/02 05:53:00;;;;;;;15.32;3.85;;;;;;;;;;4981702;28;20042;-71
2023/10/02 05:55:54;;;;;;;12.07;3.80;;;;;;;;;;4985753;28;20025;-71
2023/10/02 05:58:20;;;;;;;16.08;3.85;;;;;;;;;;4983487;28;20117;-73
2023/10/02 06:00:46;;;;;;;13.65;4.13;;;;;;;;;;4982381;28;20057;-69
2023/10/02 06:03:12;;;;;;;13.38;4.10;;;;;;;;;;4983476;28;20483;-70
2023/10/02 06:05:38;;;;;;;13.87;4.20;;;;;;;;;;4984402;28;20064;-70
2023/10/02 06:08:06;;;;;;;11.00;4.22;;;;;;;;;;4994543;28;20065;-72
2023/10/02 06:10:34;;;;;;;17.90;3.88;;;;;;;;;;4980304;28;20118;-71
2023/10/02 06:13:06;;;;;;;18.35;3.78;;;;;;;;;;4982987;28;20037;-72
2023/10/02 06:15:43;;;;;;;12.50;3.75;;;;;;;;;;4982060;28;20089;-72
2023/10/02 06:18:09;;;;;;;11.57;3.97;;;;;;;;;;4982118;28;20030;-70
2023/10/02 06:20:34;;;;;;;12.88;4.43;;;;;;;;;;4980350;28;20029;-71
2023/10/02 06:23:19;;;;;;;23.30;3.92;;;;;;;;;;4980195;28;20476;-71
2023/10/02 06:25:46;;;;;;;11.35;4.10;;;;;;;;;;4980977;28;20030;-71
2023/10/02 06:28:23;;;;;;;16.17;3.70;;;;;;;;;;4984860;28;20027;-72
2023/10/02 06:30:49;;;;;;;14.60;4.20;;;;;;;;;;4982362;28;20593;-72
2023/10/02 06:33:17;;;;;;;9.23;3.55;;;;;;;;;;4977828;28;20461;-72
2023/10/02 06:35:45;;;;;;;18.45;3.95;;;;;;;;;;4980967;28;20046;-73
2023/10/02 06:38:16;;;;;;;12.45;3.67;;;;;;;;;;4977813;28;20030;-72
2023/10/02 06:40:55;;;;;;;9.77;3.65;;;;;;;;;;4982289;28;20077;-72
2023/10/02 06:43:30;;;;;;;16.15;4.15;;;;;;;;;;4981343;28;20543;-72
2023/10/02 06:46:18;;;;;;;21.15;5.40;;;;;;;;;;4980863;28;20030;-72
2023/10/02 06:48:45;;;;;;;17.38;5.55;;;;;;;;;;4996368;28;20030;-71
2023/10/02 06:51:13;;;;;;;21.23;5.32;;;;;;;;;;4976086;28;20026;-72
2023/10/02 06:53:40;;;;;;;16.77;6.32;;;;;;;;;;4981770;28;20026;-72
2023/10/02 06:56:10;;;;;;;15.15;4.82;;;;;;;;;;4985140;28;20030;-71
2023/10/02 06:58:48;;;;;;;12.77;4.70;;;;;;;;;;4980448;28;20060;-71
2023/10/02 07:01:14;;;;;;;14.80;4.50;;;;;;;;;;4980651;28;20022;-71
2023/10/02 07:03:40;;;;;;;14.00;4.70;;;;;;;;;;4975394;28;20385;-71
2023/10/02 07:06:07;;;;;;;12.55;4.00;;;;;;;;;;4982129;28;20042;-71
2023/10/02 07:08:34;;;;;;;15.38;3.90;;;;;;;;;;4980769;28;20475;-71
2023/10/02 07:11:01;;;;;;;18.10;6.55;;;;;;;;;;4981793;28;20081;-72
2023/10/02 07:13:26;;;;;;;11.88;4.07;;;;;;;;;;4983227;28;20023;-72
2023/10/02 07:15:56;;;;;;;12.60;3.50;;;;;;;;;;4979613;28;20042;-71
2023/10/02 07:18:37;;;;;;;16.42;3.60;;;;;;;;;;4979828;28;20082;-72
2023/10/02 07:21:07;;;;;;;10.60;3.53;;;;;;;;;;4982168;28;20046;-73
2023/10/02 07:23:37;;;;;;;8.93;2.97;;;;;;;;;;4983389;28;20038;-72
2023/10/02 07:26:04;;;;;;;13.23;3.00;;;;;;;;;;4983190;28;20704;-75
2023/10/02 07:28:29;;;;;;;8.05;3.28;;;;;;;;;;4987030;28;20062;-72
2023/10/02 07:30:56;;;;;;;10.47;3.00;;;;;;;;;;4980121;28;20085;-72
2023/10/02 07:33:22;;;;;;;11.27;2.80;;;;;;;;;;4982299;28;20491;-72
2023/10/02 07:35:54;;;;;;;8.77;2.70;;;;;;;;;;4986668;28;20496;-73
2023/10/02 07:38:22;;;;;;;9.32;2.58;;;;;;;;;;4984104;28;20116;-72
2023/10/02 07:40:48;;;;;;;7.00;2.47;;;;;;;;;;4986102;28;20484;-73
2023/10/02 07:43:19;;;;;;;10.40;2.83;;;;;;;;;;4984791;28;20041;-74
2023/10/02 07:46:02;;;;;;;11.43;2.95;;;;;;;;;;4987083;28;20030;-77
2023/10/02 07:48:35;;;;;;;13.05;2.75;;;;;;;;;;4981505;28;20399;-73
2023/10/02 07:51:06;;;;;;;9.13;2.80;;;;;;;;;;4984972;28;20505;-73
2023/10/02 07:53:40;;;;;;;11.00;2.80;;;;;;;;;;4984199;28;20081;-72
2023/10/02 07:56:06;;;;;;;13.90;4.00;;;;;;;;;;4984955;28;20405;-72
2023/10/02 07:58:36;;;;;;;11.13;2.60;;;;;;;;;;4987228;28;20041;-71
2023/10/02 08:01:11;;;;;;;11.38;2.45;;;;;;;;;;4984976;28;20026;-72
2023/10/02 08:03:42;;;;;;;7.95;2.40;;;;;;;;;;4985576;28;20026;-75
2023/10/02 08:06:21;;;;;;;6.40;2.40;;;;;;;;;;4982997;28;20033;-73
2023/10/02 08:09:35;;;;;;;6.57;2.73;;;;;;;;;;4985959;28;20034;-73
2023/10/02 08:11:36;;;;;;;11.27;2.70;;;;;;;;;;4983523;28;20125;-73
2023/10/02 08:14:02;;;;;;;13.43;2.97;;;;;;;;;;4983511;28;20034;-73
2023/10/02 08:16:32;;;;;;;10.82;2.75;;;;;;;;;;4983989;28;20050;-74
2023/10/02 08:18:58;;;;;;;9.52;2.70;;;;;;;;;;4981110;28;20027;-74
2023/10/02 08:21:35;;;;;;;9.75;2.53;;;;;;;;;;4984917;28;20385;-75
2023/10/02 08:24:04;;;;;;;11.68;2.40;;;;;;;;;;4983486;28;20046;-74
2023/10/02 08:26:38;;;;;;;6.67;2.30;;;;;;;;;;4986640;28;20060;-72
2023/10/02 08:29:08;;;;;;;8.68;2.42;;;;;;;;;;4986719;28;20740;-75
2023/10/02 08:31:34;;;;;;;10.25;2.47;;;;;;;;;;4983783;28;20499;-75
2023/10/02 08:34:09;;;;;;;9.85;2.20;;;;;;;;;;4982610;28;20034;-74
2023/10/02 08:36:34;;;;;;;7.57;2.28;;;;;;;;;;4977429;28;20143;-76
2023/10/02 08:39:00;;;;;;;9.15;2.72;;;;;;;;;;4983329;28;20030;-74
2023/10/02 08:41:27;;;;;;;9.32;2.40;;;;;;;;;;4983731;28;20019;-72
2023/10/02 08:43:53;;;;;;;8.07;2.15;;;;;;;;;;4982480;28;20114;-73
2023/10/02 08:46:21;;;;;;;6.75;1.90;;;;;;;;;;4996864;28;20025;-71
2023/10/02 08:48:56;;;;;;;8.52;2.30;;;;;;;;;;5001017;28;20029;-71
2023/10/02 08:51:35;;;;;;;10.77;2.25;;;;;;;;;;4997768;28;20026;-72
2023/10/02 08:54:08;;;;;;;7.75;2.53;;;;;;;;;;5005025;28;20061;-75
2023/10/02 08:56:48;;;;;;;8.02;2.47;;;;;;;;;;4998434;28;20094;-72
2023/10/02 08:59:16;;;;;;;9.82;2.88;;;;;;;;;;5000407;28;20022;-72
2023/10/02 09:01:47;;;;;;;6.15;1.88;;;;;;;18.23;nan;101567.81;5001311;28;20061;-70
2023/10/02 09:06:57;;;;;;;7.70;2.50;;;;;;;;;;4984370;28;20572;-73
2023/10/02 09:09:27;;;;;;;5.90;1.95;;;;;;;;;;4983422;28;20045;-72
2023/10/02 09:11:58;;;;;;;8.95;1.98;;;;;;;;;;4981769;28;20038;-72
2023/10/02 09:19:39;;;;;;;6.43;2.10;;;;;;;;;;4983220;28;20114;-72
2023/10/02 09:22:11;;;;;;;7.47;2.00;;;;;;;;;;4980934;28;20018;-71
2023/10/02 09:24:55;;;;;;;9.93;2.28;;;;;;;;;;4982022;28;20424;-71
2023/10/02 09:27:24;;;;;;;12.15;2.80;;;;;;;;;;4998030;28;20073;-71
2023/10/02 09:30:15;;;;;;;6.40;2.27;;;;;;;18.84;nan;101499.19;4982795;28;20026;-72
2023/10/02 09:32:47;;;;;;;6.35;2.60;;;;;;;18.76;nan;101531.66;4982592;28;20736;-72
2023/10/02 09:35:50;;;;;;;5.63;2.30;;;;;;;19.02;nan;101507.88;4984271;28;20030;-73
2023/10/02 09:38:13;;;;;;;7.47;2.35;;;;;;;;;;4974472;28;20069;-71
2023/10/02 09:41:00;;;;;;;6.88;2.35;;;;;;;19.03;nan;101496.13;4976369;28;20046;-73
2023/10/02 09:43:33;;;;;;;7.60;1.85;;;;;;;19.09;nan;101556.53;4984020;28;20105;-73
2023/10/02 09:46:05;;;;;;;7.80;2.42;;;;;;;19.19;nan;101513.88;4982537;28;20030;-71
2023/10/02 09:51:25;;;;;;;6.20;2.15;;;;;;;19.27;nan;101507.25;4979834;28;20037;-72
2023/10/02 09:54:04;;;;;;;9.23;2.38;;;;;;;19.36;nan;101491.56;4981268;28;20033;-71
2023/10/02 09:57:11;;;;;;;7.15;2.50;;;;;;;19.42;nan;101523.41;4978480;28;20505;-74
2023/10/02 09:59:47;;;;;;;6.40;2.42;;;;;;;19.47;nan;101514.63;4977671;28;20133;-71
2023/10/02 10:07:59;;;;;;;10.00;2.72;;;;;;;19.46;nan;101521.00;4962649;28;20059;-72
2023/10/02 10:10:29;;;;;;;7.70;2.60;;;;;;;;;;4960287;28;20491;-72
2023/10/02 10:13:09;;;;;;;5.72;2.58;;;;;;;19.61;nan;101504.28;4945594;28;20043;-72
2023/10/02 10:15:37;;;;;;;4.93;2.40;;;;;;;19.60;nan;101494.66;4959717;28;20063;-72
2023/10/02 10:18:12;;;;;;;6.85;2.70;;;;;;;19.67;nan;101512.06;4960583;28;20043;-73
2023/10/02 10:20:38;;;;;;;9.25;2.55;;;;;;;19.72;nan;101488.06;4956727;28;20030;-72
2023/10/02 10:23:34;;;;;;;13.18;3.50;;;;;;;19.76;nan;101510.53;4959801;28;20097;-72
2023/10/02 10:26:07;;;;;;;6.78;2.63;;;;;;;19.65;nan;101471.44;4957875;28;20405;-72
2023/10/02 10:28:50;;;;;;;7.95;2.85;;;;;;;19.82;nan;101494.53;4961373;28;20712;-72
2023/10/02 10:31:55;;;;;;;7.63;2.60;;;;;;;19.95;nan;101497.53;4958100;28;20046;-72
2023/10/02 10:35:11;;;;;;;7.00;2.50;;;;;;;20.01;nan;101501.03;4940294;28;20030;-72
2023/10/02 10:37:46;;;;;;;8.57;2.63;;;;;;;20.06;nan;101493.03;4960987;28;20039;-72
2023/10/02 10:40:44;;;;;;;13.98;3.38;;;;;;;20.10;nan;101491.44;4959768;28;20503;-72
2023/10/02 10:43:12;;;;;;;9.00;2.70;;;;;;;20.10;nan;101531.56;4955779;28;20137;-72
2023/10/02 10:45:39;;;;;;;8.38;2.72;;;;;;;;;;4977448;28;20117;-72
2023/10/02 10:48:16;;;;;;;8.38;2.80;;;;;;;;;;4979716;28;20073;-72
2023/10/02 10:53:26;;;;;;;5.60;2.28;;;;;;;20.17;nan;101481.31;5256604;23;20677;-70
2023/10/02 10:55:55;;;;;;;8.68;2.70;;;;;;;20.25;nan;101514.75;4948156;28;20821;-70
2023/10/02 10:58:35;;;;;;;7.03;2.42;;;;;;;20.31;nan;101495.00;4956940;28;20035;-69
2023/10/02 11:01:05;;;;;;;7.32;3.05;;;;;;;20.38;nan;101490.22;4949556;28;20038;-71
2023/10/02 11:03:30;;;;;;;8.25;2.95;;;;;;;20.47;nan;101473.63;4949920;28;20042;-68
2023/10/02 11:06:03;;;;;;;9.68;3.13;;;;;;;20.36;nan;101438.84;4949613;28;20015;-70
2023/10/02 11:08:29;;;;;;;5.72;2.88;;;;;;;;;;4944488;28;20397;-71
2023/10/02 11:11:06;;;;;;;8.65;3.15;;;;;;;20.55;nan;101438.34;4944450;28;20023;-70
2023/10/02 11:16:34;;;;;;;7.07;2.95;;;;;;;20.68;nan;101458.44;4947987;28;20604;-68
2023/10/02 11:22:14;;;;;;;8.93;2.47;;;;;;;20.75;nan;101441.03;4947951;28;20528;-70
2023/10/02 11:25:04;;;;;;;6.90;2.30;;;;;;;20.85;nan;101432.19;4950566;28;20039;-70
2023/10/02 11:27:29;;;;;;;7.20;2.65;;;;;;;20.84;nan;101486.81;4907572;29;20052;-67
2023/10/02 11:30:01;;;;;;;18.38;10.57;;;;;;;20.85;nan;101442.91;4891683;29;20091;-68
2023/10/02 11:32:53;;;;;;;19.90;9.57;;;;;;;20.68;nan;101427.13;4907411;29;20143;-66
2023/10/02 11:35:28;;;;;;;9.13;4.22;;;;;;;20.77;nan;101428.19;4907912;29;20047;-69
2023/10/02 11:37:54;;;;;;;14.70;7.75;;;;;;;20.87;nan;101446.13;4907655;29;20140;-69
2023/10/02 11:40:24;;;;;;;8.18;3.50;;;;;;;;;;4907752;29;20101;-69
2023/10/02 11:42:50;;;;;;;8.40;3.85;;;;;;;20.98;nan;101426.31;4907155;29;20609;-69
2023/10/02 11:45:15;;;;;;;8.48;3.13;;;;;;;20.96;nan;101424.97;4907569;29;20048;-68
2023/10/02 11:47:41;;;;;;;11.27;5.07;;;;;;;20.92;nan;101472.88;4907429;29;20091;-69
2023/10/02 11:50:07;;;;;;;8.50;3.90;;;;;;;20.98;nan;101404.09;4907487;29;20118;-72
2023/10/02 11:52:32;;;;;;;13.30;7.50;;;;;;;20.99;nan;101401.13;4907508;29;20051;-75
2023/10/02 11:54:58;;;;;;;21.35;14.27;;;;;;;21.04;nan;101473.41;4892601;29;20031;-76
2023/10/02 11:57:24;;;;;;;22.05;14.32;;;;;;;20.93;nan;101414.81;4907463;29;20116;-70
2023/10/02 11:59:50;;;;;;;44.75;29.75;;;;;;;21.00;nan;101399.28;4907607;29;20040;-69
2023/10/02 12:02:19;;;;;;;17.67;10.10;;;;;;;21.14;nan;101413.72;4905716;29;20032;-70
2023/10/02 12:04:45;;;;;;;14.77;9.77;;;;;;;21.22;nan;101389.03;4931873;28;20523;-70
2023/10/02 12:07:12;;;;;;;36.17;19.35;;;;;;;21.31;nan;101410.72;4947698;28;20059;-68
2023/10/02 12:09:38;;;;;;;9.48;4.57;;;;;;;21.33;nan;101400.50;4948818;28;20023;-68
2023/10/02 12:12:04;;;;;;;59.80;48.40;;;;;;;21.30;nan;101386.88;4949808;28;20484;-69
2023/10/02 12:14:30;;;;;;;20.55;11.85;;;;;;;21.28;nan;101376.41;4947909;28;20047;-68
2023/10/02 12:16:59;;;;;;;13.50;9.20;;;;;;;21.24;nan;101407.53;4950349;28;20039;-69
2023/10/02 12:19:36;;;;;;;13.45;5.88;;;;;;;21.19;nan;101453.03;4963414;28;20034;-68
2023/10/02 12:22:07;;;;;;;6.72;3.15;;;;;;;21.23;nan;101408.59;4970031;29;20035;-69
2023/10/02 12:24:36;;;;;;;28.25;16.40;;;;;;;21.33;nan;101389.78;4989886;28;20023;-68
2023/10/02 12:27:04;;;;;;;;;;;;;;;21.34;nan;101388.75;4957142;28;20023;-70
2023/10/02 12:29:32;;;;;;;15.88;7.45;;;;;;;21.34;nan;101347.75;4963811;28;19925;-69
2023/10/02 12:32:00;;;;;;;12.17;4.23;;;;;;;21.35;nan;101326.03;4966409;28;20248;-69
2023/10/02 12:34:27;;;;;;;21.70;15.32;;;;;;;21.40;nan;101389.53;4982088;28;20047;-68
2023/10/02 12:36:53;;;;;;;15.10;9.27;;;;;;;21.35;nan;101365.41;4970433;28;20024;-71
2023/10/02 12:39:19;;;;;;;16.15;8.75;;;;;;;21.45;nan;101366.22;4968487;28;20026;-73
2023/10/02 12:41:45;;;;;;;14.80;7.03;;;;;;;21.49;nan;101341.56;4949842;28;20048;-71
2023/10/02 12:44:11;;;;;;;11.98;4.63;;;;;;;21.49;nan;101349.59;4947836;28;20035;-67
2023/10/02 12:46:44;;;;;;;12.40;4.05;;;;;;;21.43;nan;101373.72;4951429;28;20539;-69
2023/10/02 12:49:15;;;;;;;9.02;3.28;;;;;;;21.47;nan;101338.34;4953510;28;20030;-71
2023/10/02 12:51:41;;;;;;;8.75;3.70;;;;;;;21.41;nan;101361.69;4950544;28;20030;-70
2023/10/02 12:54:07;;;;;;;15.00;9.95;;;;;;;;;;4951584;28;20032;-69
2023/10/02 12:56:33;;;;;;;13.93;6.72;;;;;;;21.53;nan;101323.84;4951486;28;20046;-71
2023/10/02 12:58:59;;;;;;;8.65;4.60;;;;;;;21.62;nan;101363.22;4951211;28;20054;-70
2023/10/02 13:01:27;;;;;;;8.20;3.97;;;;;;;21.63;nan;101364.78;4964090;28;20028;-69
2023/10/02 13:03:56;;;;;;;8.48;3.55;;;;;;;21.53;nan;101353.34;4949080;28;20117;-69
2023/10/02 13:06:26;;;;;;;8.75;3.88;;;;;;;21.60;nan;101362.66;4951558;28;20030;-67
2023/10/02 13:08:55;;;;;;;10.90;3.38;;;;;;;21.66;nan;101361.56;4963687;28;20436;-70
2023/10/02 13:11:21;;;;;;;9.63;4.68;;;;;;;;;;4949384;28;20429;-70
2023/10/02 13:13:48;;;;;;;10.50;5.13;;;;;;;21.55;nan;101351.16;4952207;28;20054;-69
2023/10/02 13:16:14;;;;;;;12.82;3.90;;;;;;;21.62;nan;101348.97;4947206;28;20124;-69
2023/10/02 13:18:40;;;;;;;10.65;4.82;;;;;;;21.60;nan;101343.13;4967734;28;20044;-69
2023/10/02 13:21:10;;;;;;;11.43;4.07;;;;;;;21.69;nan;101354.84;4952749;28;20019;-67
2023/10/02 13:23:36;;;;;;;10.65;4.22;;;;;;;21.62;nan;101375.78;4968249;28;20444;-69
2023/10/02 13:26:06;;;;;;;9.05;4.75;;;;;;;21.64;nan;101333.44;4947994;28;20370;-69
2023/10/02 13:28:34;;;;;;;11.30;5.43;;;;;;;21.58;nan;101356.78;4948213;28;20087;-69
2023/10/02 13:31:06;;;;;;;10.02;3.97;;;;;;;;;;4950341;28;20122;-69
2023/10/02 13:33:32;;;;;;;9.15;4.53;;;;;;;21.61;nan;101379.56;4947601;28;20126;-69
2023/10/02 13:36:03;;;;;;;11.57;3.78;;;;;;;;;;4946244;28;20135;-68
2023/10/02 13:38:29;;;;;;;7.05;3.20;;;;;;;21.51;nan;101345.56;4962200;28;20039;-69
2023/10/02 13:41:04;;;;;;;9.15;3.30;;;;;;;21.54;nan;101352.25;4948974;28;20432;-68
2023/10/02 13:43:31;;;;;;;16.38;3.90;;;;;;;21.52;nan;101287.41;4947439;28;20077;-69
2023/10/02 13:45:57;;;;;;;8.63;3.65;;;;;;;21.52;nan;101351.72;4949378;28;20481;-69
2023/10/02 13:48:22;;;;;;;8.35;3.03;;;;;;;21.53;nan;101339.94;4947253;28;20035;-69
2023/10/02 13:50:49;;;;;;;10.60;3.40;;;;;;;21.57;nan;101330.25;4946427;28;20069;-69
2023/10/02 13:53:14;;;;;;;12.70;3.33;;;;;;;21.44;nan;101284.22;4949123;28;20047;-69
2023/10/02 13:55:39;;;;;;;9.90;3.50;;;;;;;21.57;nan;101324.88;4949210;28;20030;-70
2023/10/02 13:58:06;;;;;;;12.60;3.50;;;;;;;21.51;nan;101326.81;4947995;28;20114;-69
2023/10/02 14:00:39;;;;;;;7.47;3.22;;;;;;;21.52;nan;101322.22;4947408;28;20055;-68
2023/10/02 14:03:09;;;;;;;12.05;3.33;;;;;;;21.50;nan;101372.63;4949837;28;20027;-70
2023/10/02 14:05:35;;;;;;;11.18;3.25;;;;;;;21.57;nan;101311.47;4955060;28;20110;-70
2023/10/02 14:08:01;;;;;;;10.18;3.72;;;;;;;21.55;nan;101306.41;4950091;28;20557;-70
2023/10/02 14:10:26;;;;;;;6.70;3.17;;;;;;;21.49;nan;101440.72;4949594;28;20110;-69
2023/10/02 14:12:52;;;;;;;8.93;3.50;;;;;;;21.49;nan;101323.59;4950746;28;20340;-70
2023/10/02 14:15:17;;;;;;;8.77;3.40;;;;;;;21.49;nan;101328.16;4950239;28;20035;-68
2023/10/02 14:17:44;;;;;;;9.15;3.55;;;;;;;21.52;nan;101324.91;4953331;28;20691;-68
2023/10/02 14:20:15;;;;;;;11.18;3.45;;;;;;;21.52;nan;101370.47;4948612;28;20117;-68
2023/10/02 14:22:50;;;;;;;8.85;3.50;;;;;;;21.50;nan;101262.75;4947913;28;20536;-68
2023/10/02 14:25:16;;;;;;;8.30;3.30;;;;;;;21.43;nan;101322.03;4947985;28;20399;-69
2023/10/02 14:27:45;;;;;;;10.75;3.72;;;;;;;21.47;nan;101332.97;4950270;28;20082;-71
2023/10/02 14:30:15;;;;;;;12.57;3.30;;;;;;;21.38;nan;101316.63;4948200;28;20019;-70
2023/10/02 14:32:46;;;;;;;11.07;3.35;;;;;;;21.39;nan;101319.09;4943388;28;20031;-69
2023/10/02 14:35:13;;;;;;;21.10;3.55;;;;;;;21.33;nan;101284.50;4948950;28;20083;-70
2023/10/02 14:37:38;;;;;;;10.93;3.08;;;;;;;;;;4948687;28;20558;-70